• Join FlightAware (Why Join?)
  • Login
  • US Flag 
12:51AM EDT


 

Airport Tracker/Info


-or-


 

Live Flight TrackerFlight Track Log ✈ EJA365 ✈ 22-Apr-2013 ✈ KOXR - KAPC

Flight Track Log - Related Links

Times and Time Zones

All times are in EDT time to prevent confusion due to time zone crossing. See the EJA365 flight status page for this flight to view local times or setup timezone preferences in your user account.

Time Position Orientation Groundspeed Altitude Reporting Facility
EDT Latitude Longitude Course Direction KTS MPH feet Rate Location/Type
01:22PM 34.2022 -119.2206 268° West 157 181 700  Level Los Angeles Center
01:24PM 34.1992 -119.3164 268° West 240 276 5,500 3,480 Climbing Los Angeles Center
01:25PM 34.1908 -119.4075 264° West 273 314 9,200 3,480 Climbing Los Angeles Center
01:26PM 34.2481 -119.4958 308° West 309 356 12,700 3,180 Climbing Los Angeles Center
01:27PM 34.3311 -119.5525 331° Northwest 336 387 15,800 2,640 Climbing Los Angeles Center
01:28PM 34.4181 -119.6108 331° Northwest 354 407 18,800 2,580 Climbing Los Angeles Center
01:29PM 34.5269 -119.6847 331° Northwest 369 425 21,800 2,640 Climbing Los Angeles Center
01:30PM 34.6206 -119.7503 330° Northwest 382 440 24,300 2,340 Climbing Los Angeles Center
01:31PM 34.7178 -119.8139 332° Northwest 393 452 26,700 1,740 Climbing Los Angeles Center
01:32PM 34.8392 -119.8933 332° Northwest 408 470 28,000 600 Climbing Los Angeles Center
01:33PM 34.9467 -119.9653 331° Northwest 432 497 28,000  Level Los Angeles Center
01:34PM 35.0558 -120.0311 334° Northwest 439 505 28,000  Level Los Angeles Center
01:35PM 35.1678 -120.0858 338° Northwest 436 502 28,000  Level Los Angeles Center
01:36PM 35.2628 -120.1625 327° Northwest 435 501 28,000  Level Los Angeles Center
01:37PM 35.3836 -120.2583 327° Northwest 433 498 28,000  Level Los Angeles Center
01:38PM 35.4247 -120.2933 325° Northwest 436 502 28,000  Level Oakland Center
01:39PM 35.5447 -120.3897 327° Northwest 439 505 28,000  Level Oakland Center
01:40PM 35.6419 -120.4694 326° Northwest 435 501 28,000  Level Oakland Center
01:41PM 35.7431 -120.5517 327° Northwest 437 503 28,000  Level Oakland Center
01:42PM 35.8442 -120.6333 327° Northwest 436 502 28,000  Level Oakland Center
01:43PM 35.9461 -120.7153 327° Northwest 437 503 28,000  Level Oakland Center
01:44PM 36.0464 -120.7978 326° Northwest 434 499 28,000  Level Oakland Center
01:45PM 36.1678 -120.8989 326° Northwest 437 503 28,000  Level Oakland Center
01:46PM 36.2689 -120.9819 326° Northwest 437 503 28,000  Level Oakland Center
01:47PM 36.3694 -121.0644 327° Northwest 435 501 28,000  Level Oakland Center
01:48PM 36.4722 -121.1481 327° Northwest 440 506 28,000  Level Oakland Center
01:49PM 36.5733 -121.2353 325° Northwest 444 511 28,000  Level Oakland Center
01:51PM 36.6752 -121.3327 323° Northwest  Level FlightAware Approximate
01:51PM 36.7786 -121.4069 323° Northwest 446 513 28,000  Level Oakland Center
01:52PM 36.8894 -121.5033 325° Northwest 441 507 28,000 -540 Level Oakland Center
01:53PM 36.9928 -121.5867 327° Northwest 439 505 26,900 -1,020 Descending Oakland Center
01:54PM 37.0997 -121.6822 325° Northwest 430 495 26,000 -900 Descending Oakland Center
01:55PM 37.2000 -121.7667 326° Northwest 426 490 25,100 -1,080 Descending Northern Cal TRACON
01:56PM 37.2842 -121.8392 326° Northwest 422 486 23,900 -1,500 Descending Oakland Center
01:57PM 37.4000 -121.9333 327° Northwest 401 461 22,100 -1,680 Descending Northern Cal TRACON
01:58PM 37.4833 -122.0167 322° Northwest 392 451 20,600 -1,680 Descending Northern Cal TRACON
01:59PM 37.5667 -122.0833 328° Northwest 373 429 18,800 -1,800 Descending Northern Cal TRACON
02:00PM 37.6594 -122.1642 325° Northwest 376 433 16,900 -1,920 Descending Oakland Center
02:01PM 37.7383 -122.2425 322° Northwest 363 418 14,800 -2,040 Descending Oakland Center
02:03PM 37.8058 -122.3317 314° West 354 407 12,800 -1,980 Descending Oakland Center
02:04PM 37.8742 -122.4139 316° Northwest 345 397 10,800 -2,460 Descending Oakland Center
02:05PM 37.9689 -122.4153 359° North 284 327 7,800 -2,400 Descending Oakland Center
02:06PM 38.0389 -122.4044 North 262 302 6,000 -1,620 Descending Oakland Center
02:07PM 38.1028 -122.3767 19° North 253 291 4,500 -1,860 Descending Oakland Center
02:08PM 38.1614 -122.3461 22° Northeast 241 277 2,300 -1,500 Descending Oakland Center
02:09PM 38.2111 -122.3269 17° North 208 239 1,500 -420 Descending Oakland Center
02:10PM 38.2569 -122.3022 23° Northeast 192 221 1,500 -360 Level Oakland Center
02:11PM 38.2542 -122.2628 95° East 175 201 800 -720 Descending Oakland Center